createdAt,value
2018-02-24T00:00:29.623Z,9.10
2018-02-24T00:02:57.617Z,9.02
2018-02-24T00:05:25.587Z,9.20
2018-02-24T00:07:53.530Z,9.21
2018-02-24T00:10:21.492Z,9.17
2018-02-24T00:12:49.514Z,9.12
2018-02-24T00:15:17.533Z,8.98
2018-02-24T00:17:45.514Z,9.20
2018-02-24T00:20:13.615Z,9.32
2018-02-24T00:22:43.613Z,8.94
2018-02-24T00:25:11.616Z,8.88
2018-02-24T00:27:39.582Z,9.18
2018-02-24T00:30:07.606Z,9.18
2018-02-24T00:32:35.594Z,9.36
2018-02-24T00:35:03.607Z,9.47
2018-02-24T00:37:31.565Z,9.40
2018-02-24T00:39:59.623Z,9.32
2018-02-24T00:42:27.666Z,9.35
2018-02-24T00:44:55.590Z,9.55
2018-02-24T00:47:23.556Z,9.50
2018-02-24T00:49:51.606Z,8.91
2018-02-24T00:52:20.216Z,9.17
2018-02-24T00:54:48.167Z,9.40
2018-02-24T00:57:16.239Z,9.27
2018-02-24T00:59:44.217Z,8.99
2018-02-24T01:02:12.238Z,9.19
2018-02-24T01:04:40.340Z,9.24
2018-02-24T01:07:08.335Z,9.31
2018-02-24T01:09:36.238Z,9.35
2018-02-24T01:12:04.304Z,9.07
2018-02-24T01:14:32.319Z,8.47
2018-02-24T01:17:00.302Z,9.30
2018-02-24T01:19:28.252Z,9.11
2018-02-24T01:21:56.247Z,9.38
2018-02-24T01:24:24.226Z,9.53
2018-02-24T01:26:52.197Z,9.51
2018-02-24T01:29:20.159Z,9.10
2018-02-24T01:31:48.146Z,9.42
2018-02-24T01:34:16.123Z,9.25
2018-02-24T01:36:44.114Z,8.78
2018-02-24T01:39:12.162Z,8.83
2018-02-24T01:41:40.153Z,9.03
2018-02-24T01:44:08.169Z,9.25
2018-02-24T01:46:36.162Z,9.35
2018-02-24T01:49:04.116Z,9.47
2018-02-24T01:51:32.091Z,9.52
2018-02-24T01:54:00.434Z,9.64
2018-02-24T01:56:28.442Z,9.63
2018-02-24T01:58:56.481Z,9.59
2018-02-24T02:01:24.481Z,9.42
2018-02-24T02:03:52.443Z,9.13
2018-02-24T02:06:20.522Z,9.16
2018-02-24T02:08:48.578Z,9.06
2018-02-24T02:11:16.599Z,9.21
2018-02-24T02:13:44.565Z,9.20
2018-02-24T02:16:12.547Z,9.30
2018-02-24T02:18:40.477Z,9.31
2018-02-24T02:21:08.425Z,9.28
2018-02-24T02:23:36.421Z,9.32
2018-02-24T02:26:04.469Z,9.18
2018-02-24T02:28:32.575Z,9.30
2018-02-24T02:31:00.612Z,9.30
2018-02-24T02:33:28.609Z,9.25
2018-02-24T02:35:56.536Z,9.36
2018-02-24T02:38:24.555Z,9.42
2018-02-24T02:40:52.580Z,9.42
2018-02-24T02:43:20.560Z,9.47
2018-02-24T02:45:48.535Z,9.36
2018-02-24T02:48:17.360Z,9.48
2018-02-24T02:50:45.300Z,9.47
2018-02-24T02:53:13.219Z,9.41
2018-02-24T02:55:41.684Z,9.39
2018-02-24T02:58:09.584Z,9.42
2018-02-24T03:00:37.616Z,9.47
2018-02-24T03:03:05.525Z,9.46
2018-02-24T03:05:33.443Z,9.51
2018-02-24T03:08:01.528Z,9.43
2018-02-24T03:10:29.538Z,9.40
2018-02-24T03:12:57.529Z,9.41
2018-02-24T03:15:25.614Z,9.48
2018-02-24T03:17:53.622Z,9.52
2018-02-24T03:20:21.618Z,9.62
2018-02-24T03:22:49.628Z,9.58
2018-02-24T03:25:17.562Z,9.59
2018-02-24T03:27:45.509Z,9.51
2018-02-24T03:30:13.448Z,9.50
2018-02-24T03:32:41.450Z,9.39
2018-02-24T03:35:09.362Z,9.02
2018-02-24T03:37:37.322Z,9.06
2018-02-24T03:40:05.316Z,9.02
2018-02-24T03:42:33.354Z,8.98
2018-02-24T03:45:01.388Z,8.65
2018-02-24T03:47:29.460Z,8.79
2018-02-24T03:49:57.529Z,8.97
2018-02-24T03:52:25.753Z,8.98
2018-02-24T03:54:53.669Z,8.86
2018-02-24T03:57:21.936Z,9.15
2018-02-24T03:59:49.964Z,9.28
2018-02-24T04:02:17.974Z,9.32
2018-02-24T04:04:46.022Z,9.31
2018-02-24T04:07:14.172Z,9.29
2018-02-24T04:09:42.292Z,9.14
2018-02-24T04:12:10.274Z,8.57
2018-02-24T04:14:38.234Z,8.85
2018-02-24T04:17:06.233Z,8.61
2018-02-24T04:19:34.242Z,8.78
2018-02-24T04:22:02.344Z,8.94
2018-02-24T04:24:30.407Z,8.96
2018-02-24T04:26:58.360Z,8.99
2018-02-24T04:29:26.398Z,9.01
2018-02-24T04:31:54.418Z,9.16
2018-02-24T04:34:22.377Z,9.22
2018-02-24T04:36:50.368Z,9.08
2018-02-24T04:39:18.355Z,8.19
2018-02-24T04:41:46.354Z,8.38
2018-02-24T04:44:14.343Z,8.23
2018-02-24T04:46:42.378Z,8.76
2018-02-24T04:49:10.335Z,8.54
2018-02-24T04:51:38.322Z,8.64
2018-02-24T04:54:06.354Z,8.34
2018-02-24T04:56:34.385Z,8.69
2018-02-24T04:59:02.758Z,9.05
2018-02-24T05:01:30.753Z,8.42
2018-02-24T05:03:58.763Z,7.94
2018-02-24T05:06:26.743Z,8.05
2018-02-24T05:08:54.738Z,8.62
2018-02-24T05:11:22.731Z,8.88
2018-02-24T05:13:50.700Z,8.69
2018-02-24T05:16:18.678Z,9.05
2018-02-24T05:18:46.629Z,9.24
2018-02-24T05:21:14.726Z,9.50
2018-02-24T05:23:42.642Z,9.61
2018-02-24T05:26:10.626Z,9.73
2018-02-24T05:28:38.655Z,9.67
2018-02-24T05:31:06.630Z,9.16
2018-02-24T05:33:34.628Z,9.22
2018-02-24T05:36:02.707Z,9.50
2018-02-24T05:38:30.683Z,9.52
2018-02-24T05:40:58.692Z,9.26
2018-02-24T05:43:26.723Z,9.49
2018-02-24T05:45:54.694Z,9.48
2018-02-24T05:48:22.728Z,9.55
2018-02-24T05:50:50.706Z,9.22
2018-02-24T05:53:18.633Z,9.20
2018-02-24T05:55:46.622Z,9.52
2018-02-24T05:58:14.585Z,9.58
2018-02-24T06:00:42.904Z,8.99
2018-02-24T06:03:10.888Z,8.78
2018-02-24T06:05:39.107Z,8.52
2018-02-24T06:08:07.141Z,8.81
2018-02-24T06:10:35.106Z,8.82
2018-02-24T06:13:03.107Z,8.37
2018-02-24T06:15:31.066Z,8.49
2018-02-24T06:17:59.055Z,8.54
2018-02-24T06:20:27.007Z,8.19
2018-02-24T06:22:55.022Z,8.26
2018-02-24T06:25:23.069Z,7.76
2018-02-24T06:27:51.099Z,8.05
2018-02-24T06:30:19.144Z,8.10
2018-02-24T06:32:48.029Z,8.36
2018-02-24T06:35:15.966Z,8.18
2018-02-24T06:37:44.328Z,8.37
2018-02-24T06:40:12.397Z,8.10
2018-02-24T06:42:40.384Z,8.56
2018-02-24T06:45:09.366Z,8.48
2018-02-24T06:47:37.364Z,7.91
2018-02-24T06:50:05.898Z,7.95
2018-02-24T06:52:33.972Z,7.87
2018-02-24T06:55:01.925Z,7.72
2018-02-24T06:57:29.922Z,7.97
2018-02-24T06:59:57.911Z,8.03
2018-02-24T07:02:26.315Z,7.78
2018-02-24T07:04:54.345Z,7.84
2018-02-24T07:07:23.416Z,8.01
2018-02-24T07:09:53.310Z,8.16
2018-02-24T07:12:21.371Z,8.01
2018-02-24T07:14:49.377Z,7.95
2018-02-24T07:17:17.347Z,7.72
2018-02-24T07:19:45.362Z,7.64
2018-02-24T07:22:13.410Z,8.03
2018-02-24T07:24:41.465Z,8.52
2018-02-24T07:27:10.459Z,8.87
2018-02-24T07:32:13.059Z,9.20
2018-02-24T07:34:41.008Z,8.41
2018-02-24T07:37:11.735Z,8.92
2018-02-24T07:39:39.737Z,8.48
2018-02-24T07:42:08.522Z,9.03
2018-02-24T07:44:36.753Z,9.63
2018-02-24T07:47:08.456Z,9.01
2018-02-24T07:49:36.491Z,9.28
2018-02-24T07:52:04.458Z,9.52
2018-02-24T07:54:32.491Z,9.58
2018-02-24T07:57:00.430Z,9.50
2018-02-24T07:59:28.438Z,10.48
2018-02-24T08:01:56.447Z,11.21
2018-02-24T08:04:24.993Z,10.41
2018-02-24T08:06:52.966Z,10.07
2018-02-24T08:09:21.891Z,10.46
2018-02-24T08:11:50.711Z,9.34
2018-02-24T08:14:18.746Z,9.72
2018-02-24T08:16:46.775Z,9.59
2018-02-24T08:19:14.753Z,9.71
2018-02-24T08:21:42.810Z,9.56
2018-02-24T08:24:10.788Z,10.08
2018-02-24T08:26:38.920Z,10.27
2018-02-24T08:29:07.214Z,10.37
2018-02-24T08:31:35.794Z,10.50
2018-02-24T08:34:04.483Z,10.72
2018-02-24T08:36:32.848Z,10.35
2018-02-24T08:39:01.437Z,10.44
2018-02-24T08:41:30.022Z,10.81
2018-02-24T08:43:58.705Z,10.85
2018-02-24T08:46:27.290Z,10.65
2018-02-24T08:48:55.671Z,10.69
2018-02-24T08:51:24.458Z,10.67
2018-02-24T08:53:52.735Z,10.60
2018-02-24T08:56:21.212Z,10.42
2018-02-24T08:58:49.745Z,10.22
2018-02-24T09:01:18.322Z,10.97
2018-02-24T09:03:46.653Z,11.14
2018-02-24T09:06:15.233Z,10.17
2018-02-24T09:08:43.529Z,10.66
2018-02-24T09:11:11.770Z,11.12
2018-02-24T09:13:40.154Z,11.11
2018-02-24T09:16:08.646Z,11.55
2018-02-24T09:18:37.330Z,11.37
2018-02-24T09:21:05.978Z,10.45
2018-02-24T09:23:34.614Z,11.13
2018-02-24T09:26:02.977Z,11.10
2018-02-24T09:28:31.561Z,10.77
2018-02-24T09:30:59.481Z,10.92
2018-02-24T09:33:27.379Z,10.97
2018-02-24T09:35:55.383Z,11.00
2018-02-24T09:38:23.746Z,11.51
2018-02-24T09:40:51.724Z,11.52
2018-02-24T09:43:19.718Z,11.75
2018-02-24T09:45:48.269Z,11.71
2018-02-24T09:48:16.287Z,12.21
2018-02-24T09:50:44.367Z,11.01
2018-02-24T09:53:12.884Z,11.38
2018-02-24T09:55:40.847Z,11.65
2018-02-24T09:58:09.077Z,11.93
2018-02-24T10:00:37.007Z,11.77
2018-02-24T10:03:04.982Z,11.88
2018-02-24T10:05:32.982Z,11.94
2018-02-24T10:08:01.334Z,11.97
2018-02-24T10:10:29.731Z,12.18
2018-02-24T10:12:58.067Z,11.77
2018-02-24T10:15:26.594Z,11.85
2018-02-24T10:17:54.940Z,12.07
2018-02-24T10:20:23.407Z,11.79
2018-02-24T10:22:51.461Z,11.90
2018-02-24T10:25:19.871Z,12.22
2018-02-24T10:27:48.550Z,12.23
2018-02-24T10:30:17.323Z,12.23
2018-02-24T10:32:45.613Z,12.47
2018-02-24T10:35:14.078Z,11.84
2018-02-24T10:37:42.478Z,12.07
2018-02-24T10:40:10.934Z,12.06
2018-02-24T10:42:39.215Z,12.45
2018-02-24T10:45:07.601Z,12.71
2018-02-24T10:47:36.054Z,12.34
2018-02-24T10:50:04.637Z,12.32
2018-02-24T10:52:33.343Z,12.47
2018-02-24T10:55:01.921Z,13.00
2018-02-24T10:57:30.708Z,13.21
2018-02-24T10:59:59.403Z,13.18
2018-02-24T11:02:28.285Z,13.20
2018-02-24T11:04:56.258Z,14.27
2018-02-24T11:07:24.946Z,14.52
2018-02-24T11:09:53.454Z,13.64
2018-02-24T11:12:21.802Z,14.29
2018-02-24T11:14:50.286Z,13.47
2018-02-24T11:17:19.220Z,14.12
2018-02-24T11:19:47.854Z,15.14
2018-02-24T11:22:16.543Z,15.70
2018-02-24T11:24:45.026Z,15.66
2018-02-24T11:27:13.028Z,15.59
2018-02-24T11:29:41.569Z,15.86
2018-02-24T11:32:10.070Z,17.18
2018-02-24T11:34:38.737Z,18.37
2018-02-24T11:37:07.221Z,17.92
2018-02-24T11:39:41.063Z,17.68
2018-02-24T11:42:09.712Z,16.94
2018-02-24T11:44:37.887Z,16.95
2018-02-24T11:47:06.259Z,15.90
2018-02-24T11:49:34.757Z,16.78
2018-02-24T11:52:03.631Z,17.21
2018-02-24T11:54:32.007Z,17.53
2018-02-24T11:57:00.343Z,17.45
2018-02-24T11:59:28.766Z,16.83
2018-02-24T12:01:57.349Z,16.43
2018-02-24T12:04:25.622Z,15.95
2018-02-24T12:06:54.102Z,16.07
2018-02-24T12:09:22.801Z,15.60
2018-02-24T12:11:51.586Z,16.49
2018-02-24T12:14:19.948Z,16.95
2018-02-24T12:16:48.434Z,16.52
2018-02-24T12:19:16.869Z,17.46
2018-02-24T12:21:45.186Z,16.87
2018-02-24T12:24:13.770Z,16.60
2018-02-24T12:26:41.938Z,16.52
2018-02-24T12:29:10.429Z,16.22
2018-02-24T12:31:39.237Z,16.28
2018-02-24T12:34:07.694Z,16.50
2018-02-24T12:36:36.155Z,16.36
2018-02-24T12:39:04.738Z,16.50
2018-02-24T12:41:33.151Z,14.65
2018-02-24T12:44:01.720Z,14.89
2018-02-24T12:46:30.094Z,14.26
2018-02-24T12:48:58.051Z,14.37
2018-02-24T12:51:25.970Z,14.76
2018-02-24T12:53:54.035Z,15.21
2018-02-24T12:56:22.008Z,15.70
2018-02-24T12:58:50.021Z,14.32
2018-02-24T13:01:17.934Z,15.28
2018-02-24T13:03:45.899Z,14.34
2018-02-24T13:06:13.861Z,14.42
2018-02-24T13:08:41.786Z,14.59
2018-02-24T13:11:09.781Z,14.78
2018-02-24T13:13:38.059Z,14.69
2018-02-24T13:16:05.988Z,14.83
2018-02-24T13:18:33.945Z,15.13
2018-02-24T13:21:01.934Z,14.71
2018-02-24T13:23:30.753Z,13.84
2018-02-24T13:25:59.437Z,14.30
2018-02-24T13:28:28.017Z,14.75
2018-02-24T13:30:56.394Z,13.66
2018-02-24T13:33:24.874Z,14.43
2018-02-24T13:35:53.234Z,14.23
2018-02-24T13:38:21.685Z,14.56
2018-02-24T13:40:50.538Z,13.93
2018-02-24T13:43:19.002Z,13.39
2018-02-24T13:45:47.668Z,13.68
2018-02-24T13:48:16.333Z,13.16
2018-02-24T13:50:44.850Z,12.84
2018-02-24T13:53:13.347Z,12.64
2018-02-24T13:55:41.810Z,13.10
2018-02-24T13:58:10.293Z,13.33
2018-02-24T14:00:38.857Z,13.07
2018-02-24T14:03:07.444Z,13.04
2018-02-24T14:05:36.247Z,13.18
2018-02-24T14:08:04.607Z,13.34
2018-02-24T14:10:32.798Z,13.44
2018-02-24T14:13:01.279Z,13.37
2018-02-24T14:15:30.115Z,13.76
2018-02-24T14:17:58.750Z,12.36
2018-02-24T14:20:27.234Z,12.16
2018-02-24T14:22:55.719Z,12.05
2018-02-24T14:25:24.398Z,12.36
2018-02-24T14:27:52.979Z,12.55
2018-02-24T14:30:21.771Z,12.22
2018-02-24T14:32:50.229Z,12.29
2018-02-24T14:35:18.943Z,12.52
2018-02-24T14:37:47.415Z,12.22
2018-02-24T14:40:15.607Z,11.78
2018-02-24T14:42:43.555Z,11.63
2018-02-24T14:45:11.523Z,11.81
2018-02-24T14:47:39.465Z,11.52
2018-02-24T14:50:07.502Z,11.67
2018-02-24T14:52:35.482Z,11.86
2018-02-24T14:55:03.458Z,11.88
2018-02-24T14:57:31.462Z,11.48
2018-02-24T14:59:59.453Z,11.60
2018-02-24T15:02:27.445Z,11.14
2018-02-24T15:04:55.387Z,11.24
2018-02-24T15:07:23.391Z,11.15
2018-02-24T15:09:51.326Z,11.65
2018-02-24T15:12:19.298Z,11.86
2018-02-24T15:14:47.362Z,11.58
2018-02-24T15:17:15.730Z,11.50
2018-02-24T15:19:43.713Z,11.52
2018-02-24T15:22:11.817Z,11.05
2018-02-24T15:24:39.843Z,10.73
2018-02-24T15:27:07.808Z,10.76
2018-02-24T15:29:35.772Z,10.58
2018-02-24T15:32:03.702Z,10.67
2018-02-24T15:34:31.662Z,10.77
2018-02-24T15:36:59.698Z,11.25
2018-02-24T15:39:27.710Z,10.82
2018-02-24T15:41:55.742Z,11.20
2018-02-24T15:44:23.729Z,11.18
2018-02-24T15:46:51.786Z,11.35
2018-02-24T15:49:19.793Z,10.86
2018-02-24T15:51:48.913Z,10.80
2018-02-24T15:54:16.922Z,10.57
2018-02-24T15:56:44.998Z,10.31
2018-02-24T15:59:13.031Z,10.40
2018-02-24T16:01:41.103Z,10.44
2018-02-24T16:04:09.126Z,10.35
2018-02-24T16:06:37.093Z,10.20
2018-02-24T16:09:05.030Z,9.99
2018-02-24T16:11:32.994Z,10.18
2018-02-24T16:14:01.012Z,10.04
2018-02-24T16:16:29.121Z,9.61
2018-02-24T16:18:57.595Z,9.52
2018-02-24T16:21:25.585Z,9.63
2018-02-24T16:23:53.549Z,9.84
2018-02-24T16:26:21.691Z,10.34
2018-02-24T16:28:49.693Z,10.52
2018-02-24T16:31:17.674Z,10.49
2018-02-24T16:33:45.514Z,10.40
2018-02-24T16:36:13.521Z,10.40
2018-02-24T16:38:41.442Z,10.46
2018-02-24T16:41:09.325Z,10.91
2018-02-24T16:43:37.292Z,11.00
2018-02-24T16:46:05.321Z,10.93
2018-02-24T16:48:33.289Z,10.94
2018-02-24T16:51:01.306Z,10.91
2018-02-24T16:53:29.350Z,11.03
2018-02-24T16:55:57.308Z,10.74
2018-02-24T16:58:25.440Z,10.50
2018-02-24T17:00:53.455Z,10.63
2018-02-24T17:03:21.469Z,10.82
2018-02-24T17:05:49.458Z,10.91
2018-02-24T17:08:17.479Z,10.83
2018-02-24T17:10:45.441Z,11.00
2018-02-24T17:13:13.346Z,11.02
2018-02-24T17:15:41.361Z,10.94
2018-02-24T17:21:41.732Z,11.02
2018-02-24T17:24:09.769Z,10.96
2018-02-24T17:26:37.782Z,11.11
2018-02-24T17:29:05.809Z,10.82
2018-02-24T17:31:33.923Z,9.95
2018-02-24T17:34:01.958Z,9.96
2018-02-24T17:36:29.926Z,10.11
2018-02-24T17:38:57.974Z,10.42
2018-02-24T17:41:25.989Z,10.46
2018-02-24T17:43:54.064Z,10.55
2018-02-24T17:46:22.111Z,10.55
2018-02-24T17:48:50.116Z,10.69
2018-02-24T17:51:18.120Z,10.69
2018-02-24T17:53:50.015Z,10.72
2018-02-24T17:56:21.326Z,10.71
2018-02-24T17:58:50.754Z,10.71
2018-02-24T18:01:19.352Z,10.67
2018-02-24T18:03:48.471Z,10.74
2018-02-24T18:06:16.484Z,10.77
2018-02-24T18:08:44.474Z,10.79
2018-02-24T18:11:12.452Z,10.68
2018-02-24T18:13:40.516Z,10.68
2018-02-24T18:16:08.522Z,10.71
2018-02-24T18:18:36.518Z,10.73
2018-02-24T18:21:04.490Z,10.24
2018-02-24T18:23:32.828Z,10.41
2018-02-24T18:26:00.833Z,10.38
2018-02-24T18:28:28.762Z,10.50
2018-02-24T18:30:56.824Z,10.61
2018-02-24T18:33:24.817Z,10.65
2018-02-24T18:35:52.697Z,10.68
2018-02-24T18:38:20.745Z,10.61
2018-02-24T18:40:48.667Z,10.72
2018-02-24T18:43:16.722Z,10.25
2018-02-24T18:45:44.729Z,10.32
2018-02-24T18:48:12.820Z,10.16
2018-02-24T18:50:40.789Z,10.30
2018-02-24T18:53:08.797Z,10.33
2018-02-24T18:55:36.718Z,10.23
2018-02-24T18:58:04.657Z,10.36
2018-02-24T19:00:32.597Z,10.31
2018-02-24T19:03:00.644Z,10.29
2018-02-24T19:05:28.655Z,10.33
2018-02-24T19:07:56.598Z,10.07
2018-02-24T19:10:24.586Z,10.24
2018-02-24T19:12:52.611Z,9.97
2018-02-24T19:15:20.618Z,10.08
2018-02-24T19:17:48.625Z,9.80
2018-02-24T19:20:16.626Z,10.01
2018-02-24T19:22:44.675Z,9.75
2018-02-24T19:25:13.161Z,9.25
2018-02-24T19:27:41.104Z,9.58
2018-02-24T19:30:09.272Z,9.68
2018-02-24T19:32:37.234Z,10.15
2018-02-24T19:35:05.197Z,10.31
2018-02-24T19:37:33.176Z,10.42
2018-02-24T19:40:01.162Z,10.39
2018-02-24T19:42:29.127Z,10.29
2018-02-24T19:44:57.064Z,10.13
2018-02-24T19:47:25.032Z,9.89
2018-02-24T19:49:53.011Z,10.05
2018-02-24T19:52:21.490Z,9.96
2018-02-24T19:54:49.463Z,10.03
2018-02-24T19:57:17.504Z,9.64
2018-02-24T19:59:45.478Z,9.93
2018-02-24T20:02:14.365Z,9.97
2018-02-24T20:04:42.927Z,10.00
2018-02-24T20:07:10.913Z,9.95
2018-02-24T20:09:38.883Z,10.05
2018-02-24T20:12:06.814Z,9.62
2018-02-24T20:14:34.766Z,9.47
2018-02-24T20:17:03.426Z,9.61
2018-02-24T20:19:31.485Z,9.48
2018-02-24T20:21:59.413Z,9.10
2018-02-24T20:24:27.398Z,8.54
2018-02-24T20:26:55.935Z,8.66
2018-02-24T20:29:23.912Z,8.44
2018-02-24T20:31:51.918Z,9.04
2018-02-24T20:34:19.890Z,9.37
2018-02-24T20:36:47.913Z,9.45
2018-02-24T20:39:16.360Z,9.29
2018-02-24T20:41:44.407Z,9.02
2018-02-24T20:44:12.328Z,9.12
2018-02-24T20:46:40.279Z,8.97
2018-02-24T20:49:08.321Z,9.39
2018-02-24T20:51:36.347Z,9.45
2018-02-24T20:54:04.318Z,9.61
2018-02-24T20:56:32.302Z,9.69
2018-02-24T20:59:00.268Z,9.53
2018-02-24T21:01:28.279Z,9.58
2018-02-24T21:03:57.261Z,9.62
2018-02-24T21:06:25.298Z,9.66
2018-02-24T21:08:54.177Z,9.57
2018-02-24T21:11:22.138Z,9.40
2018-02-24T21:13:50.218Z,9.40
2018-02-24T21:16:18.597Z,9.39
2018-02-24T21:18:46.884Z,9.07
2018-02-24T21:21:17.504Z,9.13
2018-02-24T21:23:46.912Z,9.49
2018-02-24T21:26:16.088Z,9.66
2018-02-24T21:28:45.385Z,9.74
2018-02-24T21:33:46.556Z,9.71
2018-02-24T21:36:15.020Z,9.77
2018-02-24T21:38:43.269Z,9.92
2018-02-24T21:41:11.904Z,9.81
2018-02-24T21:43:44.592Z,9.87
2018-02-24T21:46:14.784Z,9.81
2018-02-24T21:48:43.532Z,9.35
2018-02-24T21:51:13.077Z,9.46
2018-02-24T21:53:41.894Z,9.50
2018-02-24T21:56:11.574Z,9.79
2018-02-24T21:58:40.196Z,9.88
2018-02-24T22:01:08.786Z,9.92
2018-02-24T22:03:37.346Z,9.98
2018-02-24T22:06:05.628Z,9.97
2018-02-24T22:08:36.433Z,9.97
2018-02-24T22:11:05.151Z,9.62
2018-02-24T22:13:34.858Z,9.91
2018-02-24T22:16:03.226Z,9.88
2018-02-24T22:18:31.826Z,9.87
2018-02-24T22:21:00.576Z,9.94
2018-02-24T22:23:29.364Z,9.86
2018-02-24T22:25:58.169Z,9.89
2018-02-24T22:28:26.583Z,9.91
2018-02-24T22:30:54.954Z,9.96
2018-02-24T22:33:22.897Z,9.90
2018-02-24T22:35:51.560Z,9.97
2018-02-24T22:38:19.573Z,9.84
2018-02-24T22:40:48.039Z,9.56
2018-02-24T22:43:16.217Z,9.48
2018-02-24T22:45:44.390Z,9.60
2018-02-24T22:48:18.020Z,9.67
2018-02-24T22:50:46.565Z,9.31
2018-02-24T22:53:14.632Z,9.50
2018-02-24T22:55:43.301Z,9.03
2018-02-24T22:58:11.434Z,8.86
2018-02-24T23:00:39.543Z,9.17
2018-02-24T23:03:07.527Z,9.45
2018-02-24T23:05:35.461Z,9.51
2018-02-24T23:08:03.429Z,8.34
2018-02-24T23:10:31.362Z,8.09
2018-02-24T23:12:59.249Z,7.94
2018-02-24T23:15:27.181Z,7.90
2018-02-24T23:17:55.102Z,8.16
2018-02-24T23:20:23.038Z,8.46
2018-02-24T23:22:50.963Z,8.79
2018-02-24T23:25:18.883Z,8.65
2018-02-24T23:27:46.802Z,8.33
2018-02-24T23:30:14.737Z,8.39
2018-02-24T23:32:43.250Z,8.32
2018-02-24T23:35:11.183Z,8.37
2018-02-24T23:37:39.132Z,8.03
2018-02-24T23:40:07.116Z,8.44
2018-02-24T23:42:35.063Z,8.55
2018-02-24T23:45:03.088Z,8.81
2018-02-24T23:47:31.062Z,8.98
2018-02-24T23:49:59.031Z,8.53
2018-02-24T23:52:26.906Z,8.47
2018-02-24T23:54:54.850Z,8.17
2018-02-24T23:57:22.890Z,7.56
2018-02-24T23:59:50.769Z,7.76
